Time;durP1;ratioP1;P1;durP2;ratioP2;P2;SDS_P1;SDS_P2;PMS_P1;PMS_P2;Temp;Humidity;BMP_temperature;BMP_pressure;BME280_temperature;BME280_humidity;BME280_pressure;Samples;Min_cycle;Max_cycle;Signal;HPM_P1;HPM_P2
2022/04/25 00:02:51;;;;;;;11.30;6.18;;;10.40;87.20;;;;;;6230950;22;20058;-89
2022/04/25 00:05:31;;;;;;;8.88;5.97;;;10.30;87.40;;;;;;6220354;23;20041;-88
2022/04/25 00:08:26;;;;;;;;;;;;;;;;;;;;;
2022/04/25 00:10:59;;;;;;;8.32;5.78;;;10.30;87.40;;;;;;6258338;22;20369;-89
2022/04/25 00:13:39;;;;;;;8.48;5.60;;;10.30;87.70;;;;;;6250462;22;20004;-89
2022/04/25 00:16:11;;;;;;;8.68;6.30;;;10.30;87.60;;;;;;6251710;22;19996;-89
2022/04/25 00:19:02;;;;;;;9.20;6.15;;;10.30;87.70;;;;;;6251093;22;20082;-89
2022/04/25 00:21:35;;;;;;;8.43;6.03;;;10.30;87.80;;;;;;6246431;22;20069;-90
2022/04/25 00:25:08;;;;;;;9.13;6.70;;;10.20;88.20;;;;;;6227688;22;20015;-89
2022/04/25 00:27:44;;;;;;;6.82;5.47;;;10.10;88.50;;;;;;6277263;22;20082;-88
2022/04/25 00:30:31;;;;;;;10.77;6.53;;;10.10;88.40;;;;;;6227769;22;20011;-89
2022/04/25 00:33:27;;;;;;;8.60;6.30;;;10.10;88.80;;;;;;6250412;22;20011;-90
2022/04/25 00:36:43;;;;;;;;;;;;;;;;;;;;;
2022/04/25 00:39:21;;;;;;;8.07;6.40;;;10.00;88.80;;;;;;6265928;22;20099;-89
2022/04/25 00:45:06;;;;;;;;;;;;;;;;;;;;;
2022/04/25 00:47:47;;;;;;;9.80;6.85;;;9.90;89.30;;;;;;6279503;22;20022;-89
2022/04/25 00:50:30;;;;;;;9.70;6.97;;;9.90;89.60;;;;;;6228920;22;20004;-93
2022/04/25 00:53:19;;;;;;;8.73;6.35;;;9.80;89.70;;;;;;6238690;22;20042;-89
2022/04/25 00:56:06;;;;;;;13.02;7.35;;;9.80;89.90;;;;;;6223193;22;20012;-89
2022/04/25 00:58:53;;;;;;;;;;;;;;;;;;;;;
2022/04/25 01:01:36;;;;;;;;;;;;;;;;;;;;;
2022/04/25 01:07:37;;;;;;;8.43;6.28;;;9.80;90.20;;;;;;6260576;22;20083;-89
2022/04/25 01:10:33;;;;;;;11.40;7.85;;;9.70;90.40;;;;;;6234701;22;20088;-90
2022/04/25 01:13:04;;;;;;;11.95;7.30;;;9.70;90.40;;;;;;6250664;22;20452;-90
2022/04/25 01:18:34;;;;;;;8.98;6.72;;;9.70;90.40;;;;;;6212884;22;20012;-89
2022/04/25 01:21:09;;;;;;;9.90;6.80;;;9.80;90.40;;;;;;6224964;22;20011;-91
2022/04/25 01:30:09;;;;;;;;;;;;;;;;;;;;;
2022/04/25 01:32:44;;;;;;;11.00;6.50;;;9.80;90.50;;;;;;6277285;22;20100;-91
2022/04/25 01:35:50;;;;;;;12.20;6.97;;;9.80;90.40;;;;;;6250687;22;20034;-90
2022/04/25 01:38:37;;;;;;;;;;;;;;;;;;;;;
2022/04/25 01:41:07;;;;;;;14.25;7.38;;;9.70;90.60;;;;;;6224886;23;20088;-90
2022/04/25 01:43:42;;;;;;;9.95;6.93;;;9.70;90.70;;;;;;6245439;23;20427;-90
2022/04/25 01:46:28;;;;;;;12.80;7.82;;;9.70;90.70;;;;;;6245377;23;20008;-89
2022/04/25 01:49:21;;;;;;;;;;;;;;;;;;;;;
2022/04/25 01:52:06;;;;;;;9.98;7.75;;;9.60;90.90;;;;;;6222307;23;20151;-89
2022/04/25 01:54:57;;;;;;;10.23;6.63;;;9.60;90.90;;;;;;6219809;23;20082;-89
2022/04/25 01:57:38;;;;;;;8.83;6.83;;;9.60;90.90;;;;;;6245440;23;20435;-89
2022/04/25 02:01:25;;;;;;;;;;;;;;;;;;;;;
2022/04/25 02:03:39;;;;;;;9.43;6.68;;;9.60;90.80;;;;;;6215953;23;20316;-90
2022/04/25 02:06:54;;;;;;;9.93;7.20;;;9.60;90.90;;;;;;6196214;23;20016;-89
2022/04/25 02:09:13;;;;;;;12.05;7.45;;;9.60;91.00;;;;;;6215758;23;20334;-90
2022/04/25 02:12:09;;;;;;;10.93;7.35;;;9.60;91.00;;;;;;6221767;23;20306;-88
2022/04/25 02:14:42;;;;;;;9.35;7.05;;;9.60;91.00;;;;;;6221857;23;19997;-89
2022/04/25 02:17:33;;;;;;;9.85;7.72;;;9.60;91.00;;;;;;6225382;23;20011;-89
2022/04/25 02:20:18;;;;;;;9.02;7.57;;;9.60;91.10;;;;;;6214528;23;20004;-90
2022/04/25 02:22:52;;;;;;;11.85;8.85;;;9.50;91.20;;;;;;6242387;23;20000;-90
2022/04/25 02:25:33;;;;;;;;;;;;;;;;;;;;;
2022/04/25 02:27:59;;;;;;;10.98;7.90;;;9.50;91.30;;;;;;6250548;22;19999;-91
2022/04/25 02:30:35;;;;;;;11.60;7.35;;;9.50;91.30;;;;;;6263677;22;20031;-83
2022/04/25 02:33:09;;;;;;;9.25;7.57;;;9.40;91.40;;;;;;6261727;22;20023;-84
2022/04/25 02:35:43;;;;;;;11.45;7.78;;;9.50;91.40;;;;;;6282680;22;20082;-83
2022/04/25 02:38:14;;;;;;;12.20;8.10;;;9.40;91.40;;;;;;6290480;22;19999;-84
2022/04/25 02:41:12;;;;;;;10.43;8.05;;;9.40;91.40;;;;;;6262269;22;20062;-84
2022/04/25 02:43:41;;;;;;;10.55;7.63;;;9.40;91.40;;;;;;6305954;22;20090;-84
2022/04/25 02:46:14;;;;;;;8.82;7.00;;;9.40;91.40;;;;;;6282030;22;20007;-84
2022/04/25 02:48:43;;;;;;;11.32;8.32;;;9.40;91.40;;;;;;6282301;22;19999;-84
2022/04/25 02:51:13;;;;;;;12.45;8.48;;;9.40;91.50;;;;;;6282054;22;20422;-83
2022/04/25 02:53:59;;;;;;;10.73;7.72;;;9.30;91.50;;;;;;6281546;22;20005;-85
2022/04/25 02:56:30;;;;;;;7.80;6.60;;;9.30;91.60;;;;;;6282139;22;20484;-85
2022/04/25 02:59:07;;;;;;;10.63;7.57;;;9.30;91.60;;;;;;6257375;22;20034;-85
2022/04/25 03:01:36;;;;;;;11.65;8.15;;;9.30;91.50;;;;;;6281203;22;20027;-84
2022/04/25 03:04:04;;;;;;;11.77;7.93;;;9.30;91.60;;;;;;6281835;22;20438;-85
2022/04/25 03:06:42;;;;;;;;;;;;;;;;;;;;;
2022/04/25 03:09:16;;;;;;;10.52;8.32;;;9.20;91.60;;;;;;6309425;22;20078;-85
2022/04/25 03:11:52;;;;;;;10.32;7.85;;;9.20;91.70;;;;;;6282207;22;20034;-85
2022/04/25 03:14:25;;;;;;;12.40;8.55;;;9.20;91.80;;;;;;6258401;22;20007;-85
2022/04/25 03:17:09;;;;;;;12.30;8.75;;;9.20;91.80;;;;;;6282255;22;19999;-85
2022/04/25 03:19:48;;;;;;;11.82;8.32;;;9.20;91.80;;;;;;6256310;22;20003;-85
2022/04/25 03:22:19;;;;;;;11.52;7.53;;;9.20;91.90;;;;;;6281909;22;20093;-85
2022/04/25 03:24:56;;;;;;;10.90;7.85;;;9.20;91.80;;;;;;6257076;22;20088;-85
2022/04/25 03:27:24;;;;;;;12.23;8.73;;;9.20;91.80;;;;;;6282325;22;20033;-85
2022/04/25 03:29:55;;;;;;;11.02;8.48;;;9.20;91.90;;;;;;6250717;22;20015;-85
2022/04/25 03:32:22;;;;;;;11.23;8.18;;;9.20;91.90;;;;;;6276603;22;20008;-84
2022/04/25 03:34:47;;;;;;;13.20;8.50;;;9.10;92.00;;;;;;6276680;22;20032;-85
2022/04/25 03:37:13;;;;;;;11.48;8.73;;;9.10;92.10;;;;;;6278252;22;20000;-85
2022/04/25 03:39:41;;;;;;;13.93;8.40;;;9.10;92.20;;;;;;6278118;22;20330;-85
2022/04/25 03:42:10;;;;;;;13.68;8.38;;;9.00;92.30;;;;;;6277056;22;20031;-85
2022/04/25 03:44:46;;;;;;;11.38;8.85;;;9.00;92.30;;;;;;6251453;22;20015;-85
2022/04/25 03:47:16;;;;;;;13.05;8.60;;;9.10;92.40;;;;;;6277211;22;20069;-85
2022/04/25 03:49:45;;;;;;;12.50;8.48;;;9.00;92.40;;;;;;6277664;22;20296;-85
2022/04/25 03:52:16;;;;;;;10.80;8.68;;;9.10;92.50;;;;;;6279844;22;20019;-86
2022/04/25 03:57:26;;;;;;;14.25;9.15;;;9.00;92.40;;;;;;6305515;22;20014;-84
2022/04/25 03:59:52;;;;;;;10.95;8.35;;;9.00;92.50;;;;;;6274385;22;20471;-84
2022/04/25 04:02:21;;;;;;;12.02;8.63;;;9.10;92.50;;;;;;6284876;22;20414;-84
2022/04/25 04:04:59;;;;;;;12.05;8.55;;;9.10;92.50;;;;;;6253550;22;20004;-85
2022/04/25 04:07:30;;;;;;;12.48;9.10;;;9.10;92.50;;;;;;6276413;22;20019;-85
2022/04/25 04:10:03;;;;;;;14.20;9.05;;;9.20;92.60;;;;;;6276664;22;20413;-85
2022/04/25 04:12:40;;;;;;;13.82;9.57;;;9.20;92.60;;;;;;6251132;22;20031;-84
2022/04/25 04:15:21;;;;;;;11.95;9.75;;;9.20;92.80;;;;;;6255863;22;19999;-85
2022/04/25 04:17:54;;;;;;;16.42;11.07;;;9.20;92.80;;;;;;6276602;22;19999;-84
2022/04/25 04:20:42;;;;;;;13.82;10.43;;;9.20;93.20;;;;;;6251074;22;20004;-85
2022/04/25 04:23:08;;;;;;;14.80;10.80;;;9.20;93.20;;;;;;6256139;22;20004;-84
2022/04/25 04:25:34;;;;;;;13.68;9.93;;;9.20;93.20;;;;;;6275919;22;20012;-85
2022/04/25 04:28:06;;;;;;;14.77;10.05;;;9.30;93.20;;;;;;6276143;22;20103;-84
2022/04/25 04:30:33;;;;;;;14.70;10.27;;;9.30;93.20;;;;;;6275456;22;20012;-85
2022/04/25 04:33:16;;;;;;;;;;;;;;;;;;;;;
2022/04/25 04:38:38;;;;;;;16.45;13.02;;;9.40;93.30;;;;;;6277735;22;20014;-84
2022/04/25 04:41:06;;;;;;;14.98;12.45;;;9.40;93.50;;;;;;6253471;22;20004;-85
2022/04/25 04:43:37;;;;;;;15.23;11.20;;;9.40;93.60;;;;;;6276131;22;20003;-86
2022/04/25 04:46:08;;;;;;;13.07;11.35;;;9.40;93.60;;;;;;6250382;22;20043;-85
2022/04/25 04:51:30;;;;;;;16.20;12.32;;;9.50;93.60;;;;;;6266331;22;20023;-86
2022/04/25 04:54:16;;;;;;;16.83;12.85;;;9.60;93.50;;;;;;6251975;22;20333;-86
2022/04/25 04:57:05;;;;;;;17.75;13.82;;;9.60;93.70;;;;;;6276059;22;20078;-86
2022/04/25 04:59:46;;;;;;;19.27;14.68;;;9.60;93.70;;;;;;6275827;22;20004;-85
2022/04/25 05:02:37;;;;;;;;;;;9.60;93.90;;;;;;6235224;22;20322;-86
2022/04/25 05:05:13;;;;;;;22.60;13.90;;;9.50;94.00;;;;;;6275932;22;19906;-86
2022/04/25 05:08:02;;;;;;;17.23;14.40;;;9.50;94.20;;;;;;6276216;22;20007;-88
2022/04/25 05:10:32;;;;;;;16.30;12.70;;;9.50;94.30;;;;;;6251919;22;20004;-86
2022/04/25 05:16:56;;;;;;;17.83;12.68;;;9.60;94.20;;;;;;6261183;22;20012;-86
2022/04/25 05:19:27;;;;;;;18.70;13.52;;;9.60;94.10;;;;;;6261325;22;20006;-86
2022/04/25 05:21:53;;;;;;;15.05;12.32;;;9.70;94.20;;;;;;6251763;22;20008;-86
2022/04/25 05:27:45;;;;;;;17.27;13.63;;;9.70;94.20;;;;;;6203522;22;20015;-88
2022/04/25 05:30:25;;;;;;;;;;;;;;;;;;;;;
2022/04/25 05:33:05;;;;;;;;;;;;;;;;;;;;;
2022/04/25 05:35:53;;;;;;;17.15;13.88;;;9.70;94.30;;;;;;6304582;22;19999;-87
2022/04/25 05:38:55;;;;;;;;;;;;;;;;;;;;;
2022/04/25 05:42:20;;;;;;;;;;;;;;;;;;;;;
2022/04/25 05:45:17;;;;;;;;;;;;;;;;;;;;;
2022/04/25 05:48:01;;;;;;;;;;;;;;;;;;;;;
2022/04/25 05:54:46;;;;;;;;;;;;;;;;;;;;;
2022/04/25 05:57:06;;;;;;;20.60;14.20;;;9.70;94.70;;;;;;6264023;22;20011;-87
2022/04/25 06:03:00;;;;;;;23.60;17.38;;;9.70;94.80;;;;;;6246642;22;20475;-88
2022/04/25 06:05:26;;;;;;;23.65;15.60;;;9.70;94.90;;;;;;6275828;22;20049;-86
2022/04/25 06:21:39;;;;;;;;;;;9.80;94.90;;;;;;6120267;23;20046;-89
2022/04/25 06:31:52;;;;;;;;;;;;;;;;;;;;;
2022/04/25 06:45:33;;;;;;;27.40;20.80;;;10.00;95.10;;;;;;6229098;23;20039;-90
2022/04/25 06:52:08;;;;;;;24.05;18.92;;;10.10;95.00;;;;;;6260458;22;20042;-89
2022/04/25 06:55:14;;;;;;;20.95;17.95;;;10.10;94.90;;;;;;6275873;22;20008;-90
2022/04/25 06:58:23;;;;;;;24.95;19.67;;;10.20;94.90;;;;;;6277622;22;20098;-88
2022/04/25 07:20:05;;;;;;;;;;;;;;;;;;;;;
2022/04/25 07:29:02;;;;;;;;;;;;;;;;;;;;;
2022/04/25 07:32:07;;;;;;;;;;;;;;;;;;;;;
2022/04/25 07:34:53;;;;;;;;;;;;;;;;;;;;;
2022/04/25 07:37:22;;;;;;;15.77;13.60;;;10.10;96.20;;;;;;6184754;23;20084;-88
2022/04/25 07:40:10;;;;;;;17.60;14.52;;;10.10;95.90;;;;;;6185227;23;20009;-88
2022/04/25 07:57:05;;;;;;;20.85;16.05;;;9.90;96.30;;;;;;6288134;22;20017;-90
2022/04/25 08:33:36;;;;;;;;;;;;;;;;;;;;;
2022/04/25 08:36:57;;;;;;;20.77;17.05;;;9.90;96.30;;;;;;6126350;23;20077;-91
2022/04/25 08:40:05;;;;;;;20.98;16.70;;;10.00;96.30;;;;;;6098820;23;20006;-89
2022/04/25 08:43:42;;;;;;;;;;;;;;;;;;;;;
2022/04/25 08:47:28;;;;;;;;;;;;;;;;;;;;;
2022/04/25 08:50:05;;;;;;;22.80;17.80;;;10.00;96.20;;;;;;6122734;23;20007;-90
2022/04/25 08:53:24;;;;;;;;;;;;;;;;;;;;;
2022/04/25 08:56:04;;;;;;;;;;;;;;;;;;;;;
2022/04/25 08:59:06;;;;;;;;;;;;;;;;;;;;;
2022/04/25 09:09:04;;;;;;;;;;;;;;;;;;;;;
2022/04/25 09:15:59;;;;;;;21.88;17.90;;;10.20;96.20;;;;;;6260098;22;20000;-88
2022/04/25 09:18:51;;;;;;;23.20;17.30;;;10.30;96.20;;;;;;6254873;22;20008;-88
2022/04/25 09:22:15;;;;;;;;;;;;;;;;;;;;;
2022/04/25 09:25:15;;;;;;;25.13;18.00;;;10.30;96.20;;;;;;6277807;22;20086;-88
2022/04/25 09:31:45;;;;;;;;;;;;;;;;;;;;;
2022/04/25 09:38:26;;;;;;;22.27;17.95;;;10.60;96.00;;;;;;6277318;22;20023;-90
2022/04/25 09:44:24;;;;;;;;;;;;;;;;;;;;;
2022/04/25 09:50:58;;;;;;;20.83;16.08;;;10.80;95.80;;;;;;6259688;22;20050;-89
2022/04/25 09:54:07;;;;;;;26.10;19.52;;;10.80;95.70;;;;;;6239913;22;20091;-88
2022/04/25 09:57:16;;;;;;;24.10;18.10;;;10.80;95.60;;;;;;6273479;22;20091;-87
2022/04/25 10:00:18;;;;;;;;;;;;;;;;;;;;;
2022/04/25 10:03:16;;;;;;;30.08;19.83;;;10.90;95.80;;;;;;6276786;22;20075;-87
2022/04/25 10:06:24;;;;;;;;;;;;;;;;;;;;;
2022/04/25 10:09:52;;;;;;;;;;;;;;;;;;;;;
2022/04/25 10:15:56;;;;;;;26.40;19.02;;;10.80;95.60;;;;;;6251535;22;20004;-88
2022/04/25 10:19:10;;;;;;;;;;;;;;;;;;;;;
2022/04/25 10:25:42;;;;;;;;;;;;;;;;;;;;;
2022/04/25 10:28:59;;;;;;;24.73;19.50;;;10.90;95.80;;;;;;6283122;22;20019;-88
2022/04/25 10:35:09;;;;;;;;;;;;;;;;;;;;;
2022/04/25 10:37:59;;;;;;;24.38;19.52;;;11.00;95.50;;;;;;6133571;23;20097;-88
2022/04/25 10:44:38;;;;;;;;;;;;;;;;;;;;;
2022/04/25 10:51:33;;;;;;;;;;;;;;;;;;;;;
2022/04/25 10:54:55;;;;;;;;;;;;;;;;;;;;;
2022/04/25 11:00:40;;;;;;;23.48;17.85;;;11.20;95.20;;;;;;6114034;23;20042;-88
2022/04/25 11:03:39;;;;;;;22.38;17.58;;;11.10;95.00;;;;;;6130435;23;20032;-88
2022/04/25 11:10:23;;;;;;;;;;;;;;;;;;;;;
2022/04/25 11:16:55;;;;;;;;;;;;;;;;;;;;;
2022/04/25 11:20:21;;;;;;;17.20;13.88;;;11.10;94.70;;;;;;6278554;22;20072;-88
2022/04/25 11:24:04;;;;;;;17.63;14.10;;;11.10;94.60;;;;;;6242538;22;20008;-87
2022/04/25 11:26:43;;;;;;;;;;;;;;;;;;;;;
2022/04/25 11:29:32;;;;;;;18.70;14.05;;;11.20;94.90;;;;;;6278297;22;20083;-87
2022/04/25 11:32:50;;;;;;;;;;;;;;;;;;;;;
2022/04/25 11:35:58;;;;;;;;;;;;;;;;;;;;;
2022/04/25 11:39:50;;;;;;;18.85;14.65;;;11.20;94.30;;;;;;6278190;22;20087;-87
2022/04/25 11:41:50;;;;;;;19.35;14.48;;;11.20;94.10;;;;;;6275557;22;20019;-90
2022/04/25 11:44:34;;;;;;;;;;;;;;;;;;;;;
2022/04/25 11:47:26;;;;;;;19.33;14.38;;;11.30;94.10;;;;;;6278485;22;20127;-88
2022/04/25 11:54:09;;;;;;;;;;;;;;;;;;;;;
2022/04/25 11:57:16;;;;;;;;;;;;;;;;;;;;;
2022/04/25 12:03:05;;;;;;;17.55;13.63;;;11.30;93.80;;;;;;6296237;22;20038;-87
2022/04/25 12:20:08;;;;;;;;;;;;;;;;;;;;;
2022/04/25 12:30:35;;;;;;;18.50;13.57;;;11.60;93.90;;;;;;6191095;22;20012;-89
2022/04/25 12:33:33;;;;;;;;;;;;;;;;;;;;;
2022/04/25 12:36:48;;;;;;;16.23;11.95;;;11.70;93.80;;;;;;6214692;23;20087;-90
2022/04/25 12:40:30;;;;;;;;;;;;;;;;;;;;;
2022/04/25 12:46:48;;;;;;;16.60;12.77;;;11.70;93.70;;;;;;6269053;22;20017;-88
2022/04/25 12:50:01;;;;;;;;;;;;;;;;;;;;;
2022/04/25 12:53:08;;;;;;;16.65;12.18;;;11.70;93.60;;;;;;6308756;22;20074;-88
2022/04/25 12:56:36;;;;;;;;;;;;;;;;;;;;;
2022/04/25 12:59:39;;;;;;;;;;;;;;;;;;;;;
2022/04/25 13:02:36;;;;;;;16.27;11.35;;;11.70;93.60;;;;;;6284160;22;20401;-86
2022/04/25 13:05:44;;;;;;;19.10;12.68;;;11.70;93.50;;;;;;6307107;22;20037;-86
2022/04/25 13:09:03;;;;;;;;;;;;;;;;;;;;;
2022/04/25 13:12:10;;;;;;;;;;;;;;;;;;;;;
2022/04/25 13:15:44;;;;;;;;;;;;;;;;;;;;;
2022/04/25 13:21:57;;;;;;;;;;;;;;;;;;;;;
2022/04/25 13:24:54;;;;;;;;;;;;;;;;;;;;;
2022/04/25 13:31:36;;;;;;;;;;;;;;;;;;;;;
2022/04/25 13:34:37;;;;;;;;;;;;;;;;;;;;;
2022/04/25 13:37:25;;;;;;;;;;;;;;;;;;;;;
2022/04/25 13:43:49;;;;;;;;;;;;;;;;;;;;;
2022/04/25 13:50:35;;;;;;;18.52;12.68;;;11.50;93.60;;;;;;6139689;23;20029;-88
2022/04/25 13:56:49;;;;;;;16.13;11.80;;;11.50;93.60;;;;;;6243243;22;20441;-87
2022/04/25 13:59:39;;;;;;;15.32;11.38;;;11.60;93.70;;;;;;6250619;22;20072;-87
2022/04/25 14:12:15;;;;;;;;;;;;;;;;;;;;;
2022/04/25 14:15:29;;;;;;;;;;;;;;;;;;;;;
2022/04/25 14:18:19;;;;;;;15.60;11.50;;;11.70;93.10;;;;;;6275685;22;20038;-89
2022/04/25 14:21:20;;;;;;;15.98;11.18;;;11.70;93.10;;;;;;6251030;22;19999;-89
2022/04/25 14:24:20;;;;;;;14.88;11.20;;;11.80;93.10;;;;;;6227740;22;20008;-87
2022/04/25 14:27:42;;;;;;;;;;;;;;;;;;;;;
2022/04/25 14:30:19;;;;;;;14.25;11.15;;;11.90;93.10;;;;;;6278690;22;20388;-87
2022/04/25 14:32:59;;;;;;;18.10;12.50;;;11.90;93.00;;;;;;6231241;22;20319;-87
2022/04/25 14:39:21;;;;;;;17.38;11.90;;;11.90;93.00;;;;;;6236436;22;20040;-87
2022/04/25 14:42:26;;;;;;;16.52;12.50;;;11.90;92.90;;;;;;6275264;22;20083;-87
2022/04/25 14:46:04;;;;;;;17.52;12.65;;;11.90;92.80;;;;;;6276850;22;20012;-88
2022/04/25 14:48:43;;;;;;;14.38;11.90;;;11.90;92.80;;;;;;6273188;22;20324;-87
2022/04/25 14:59:17;;;;;;;;;;;;;;;;;;;;;
2022/04/25 15:05:21;;;;;;;18.75;12.43;;;12.00;92.80;;;;;;6223446;22;19999;-89
2022/04/25 15:08:02;;;;;;;14.90;11.77;;;12.00;92.80;;;;;;6276909;22;20066;-88
2022/04/25 15:11:04;;;;;;;;;;;;;;;;;;;;;
2022/04/25 15:13:48;;;;;;;14.40;11.32;;;12.10;92.70;;;;;;6278239;22;20079;-88
2022/04/25 15:16:33;;;;;;;17.95;12.52;;;12.20;92.70;;;;;;6277338;22;20452;-88
2022/04/25 15:23:04;;;;;;;;;;;;;;;;;;;;;
2022/04/25 15:26:08;;;;;;;;;;;;;;;;;;;;;
2022/04/25 15:29:43;;;;;;;;;;;;;;;;;;;;;
2022/04/25 15:33:02;;;;;;;;;;;;;;;;;;;;;
2022/04/25 15:39:29;;;;;;;;;;;;;;;;;;;;;
2022/04/25 15:42:22;;;;;;;22.85;18.58;;;12.30;92.40;;;;;;6309059;22;20078;-88
2022/04/25 15:45:13;;;;;;;26.10;19.17;;;12.30;92.50;;;;;;6260005;22;20030;-87
2022/04/25 15:51:29;;;;;;;;;;;;;;;;;;;;;
2022/04/25 15:57:47;;;;;;;26.83;19.13;;;12.10;92.80;;;;;;6287033;22;20100;-87
2022/04/25 16:00:28;;;;;;;21.63;16.90;;;12.10;92.80;;;;;;6281010;22;20064;-87
2022/04/25 16:03:22;;;;;;;24.98;18.63;;;12.20;92.80;;;;;;6280962;22;20321;-87
2022/04/25 16:06:33;;;;;;;25.02;17.95;;;12.20;92.70;;;;;;6233799;22;20440;-87
2022/04/25 16:09:39;;;;;;;21.95;17.10;;;12.20;92.80;;;;;;6281297;22;19999;-88
2022/04/25 16:12:50;;;;;;;24.65;17.80;;;12.20;92.70;;;;;;6284721;22;20004;-88
2022/04/25 16:15:24;;;;;;;27.90;18.27;;;12.20;92.80;;;;;;6281299;22;20000;-86
2022/04/25 16:18:09;;;;;;;;;;;;;;;;;;;;;
2022/04/25 16:20:37;;;;;;;21.48;17.35;;;12.20;92.70;;;;;;6283503;22;20074;-86
2022/04/25 16:23:16;;;;;;;;;;;;;;;;;;;;;
2022/04/25 16:26:05;;;;;;;;;;;;;;;;;;;;;
2022/04/25 16:29:12;;;;;;;18.13;14.90;;;12.30;92.70;;;;;;6286027;22;20029;-89
2022/04/25 16:35:34;;;;;;;17.83;14.85;;;12.30;92.70;;;;;;6200941;22;20053;-89
2022/04/25 16:46:13;;;;;;;;;;;;;;;;;;;;;
2022/04/25 16:49:04;;;;;;;20.38;15.57;;;12.20;92.60;;;;;;6277392;22;20103;-86
2022/04/25 16:51:33;;;;;;;20.38;16.42;;;12.30;92.60;;;;;;6204952;22;20004;-89
2022/04/25 16:54:32;;;;;;;19.23;15.25;;;12.20;92.50;;;;;;6275655;22;20003;-87
2022/04/25 16:57:18;;;;;;;20.05;16.42;;;12.20;92.60;;;;;;6250323;22;20373;-87
2022/04/25 17:00:27;;;;;;;24.13;18.45;;;12.20;92.50;;;;;;6235864;22;20083;-87
2022/04/25 17:03:26;;;;;;;;;;;;;;;;;;;;;
2022/04/25 17:06:29;;;;;;;22.45;17.45;;;12.20;92.60;;;;;;6278084;22;20004;-87
2022/04/25 17:09:16;;;;;;;20.33;18.02;;;12.10;92.60;;;;;;6278332;22;19994;-89
2022/04/25 17:12:13;;;;;;;24.15;18.02;;;12.10;92.60;;;;;;6262151;22;20018;-88
2022/04/25 17:30:54;;;;;;;20.75;17.52;;;11.80;93.00;;;;;;6130683;23;20018;-89
